createdAt,value
2019-03-23T00:02:12.720Z,98220.28
2019-03-23T00:04:39.217Z,98215.92
2019-03-23T00:07:05.830Z,98209.72
2019-03-23T00:09:32.127Z,98211.11
2019-03-23T00:11:58.638Z,98210.88
2019-03-23T00:14:25.498Z,98209.05
2019-03-23T00:16:51.899Z,98210.43
2019-03-23T00:19:18.303Z,98212.66
2019-03-23T00:21:44.825Z,98205.06
2019-03-23T00:24:11.270Z,98201.29
2019-03-23T00:26:37.697Z,98199.16
2019-03-23T00:29:04.107Z,98196.50
2019-03-23T00:31:30.529Z,98196.80
2019-03-23T00:33:56.923Z,98197.38
2019-03-23T00:36:23.464Z,98193.11
2019-03-23T00:38:49.932Z,98198.02
2019-03-23T00:41:16.326Z,98189.42
2019-03-23T00:43:42.775Z,98190.25
2019-03-23T00:46:09.155Z,98183.48
2019-03-23T00:48:35.613Z,98174.83
2019-03-23T00:51:02.096Z,98169.98
2019-03-23T00:53:28.937Z,98166.52
2019-03-23T00:55:55.881Z,98180.94
2019-03-23T00:58:22.276Z,98172.64
2019-03-23T01:00:48.915Z,98167.33
2019-03-23T01:03:15.304Z,98167.97
2019-03-23T01:05:41.616Z,98155.86
2019-03-23T01:08:08.100Z,98157.00
2019-03-23T01:10:34.542Z,98150.86
2019-03-23T01:13:01.117Z,98152.55
2019-03-23T01:15:27.659Z,98144.73
2019-03-23T01:17:54.090Z,98146.44
2019-03-23T01:20:20.619Z,98144.30
2019-03-23T01:22:47.027Z,98142.16
2019-03-23T01:25:13.783Z,98136.80
2019-03-23T01:27:40.407Z,98138.47
2019-03-23T01:30:13.423Z,98134.20
2019-03-23T01:32:40.011Z,98121.22
2019-03-23T01:35:07.511Z,98120.21
2019-03-23T01:37:33.927Z,98120.27
2019-03-23T01:40:00.365Z,98116.80
2019-03-23T01:42:26.854Z,98125.48
2019-03-23T01:44:53.182Z,98123.67
2019-03-23T01:47:19.464Z,98121.79
2019-03-23T01:49:46.211Z,98116.13
2019-03-23T01:52:12.709Z,98123.50
2019-03-23T01:54:39.515Z,98117.56
2019-03-23T01:57:06.146Z,98112.41
2019-03-23T01:59:32.671Z,98106.71
2019-03-23T02:01:59.963Z,98110.45
2019-03-23T02:04:26.410Z,98113.16
2019-03-23T02:06:52.800Z,98110.98
2019-03-23T02:09:19.375Z,98109.34
2019-03-23T02:11:45.862Z,98113.38
2019-03-23T02:14:12.251Z,98105.75
2019-03-23T02:16:38.600Z,98100.58
2019-03-23T02:19:05.030Z,98097.03
2019-03-23T02:21:31.415Z,98099.43
2019-03-23T02:23:58.004Z,98103.48
2019-03-23T02:26:24.489Z,98099.20
2019-03-23T02:28:50.783Z,98101.36
2019-03-23T02:31:17.931Z,98095.97
2019-03-23T02:33:44.440Z,98089.77
2019-03-23T02:36:10.881Z,98087.89
2019-03-23T02:38:37.532Z,98090.39
2019-03-23T02:41:04.277Z,98090.16
2019-03-23T02:43:30.836Z,98089.97
2019-03-23T02:45:57.314Z,98088.14
2019-03-23T02:48:24.131Z,98081.97
2019-03-23T02:50:50.644Z,98083.66
2019-03-23T02:53:17.143Z,98087.19
2019-03-23T02:55:43.999Z,98087.45
2019-03-23T02:58:10.633Z,98089.09
2019-03-23T03:00:37.170Z,98077.51
2019-03-23T03:03:04.013Z,98082.11
2019-03-23T03:05:30.504Z,98079.67
2019-03-23T03:07:57.185Z,98079.13
2019-03-23T03:10:39.169Z,98074.30
2019-03-23T03:13:05.725Z,98078.73
2019-03-23T03:15:32.312Z,98068.58
2019-03-23T03:17:58.911Z,98068.39
2019-03-23T03:20:25.607Z,98073.53
2019-03-23T03:22:52.011Z,98078.40
2019-03-23T03:25:18.683Z,98084.88
2019-03-23T03:27:45.069Z,98087.84
2019-03-23T03:30:12.660Z,98086.49
2019-03-23T03:32:39.183Z,98088.67
2019-03-23T03:35:06.332Z,98082.73
2019-03-23T03:37:32.711Z,98085.70
2019-03-23T03:39:59.122Z,98083.78
2019-03-23T03:42:25.781Z,98093.20
2019-03-23T03:44:52.200Z,98088.34
2019-03-23T03:47:18.726Z,98084.28
2019-03-23T03:49:45.081Z,98082.65
2019-03-23T03:52:11.523Z,98087.52
2019-03-23T03:54:37.963Z,98088.88
2019-03-23T03:57:04.543Z,98089.48
2019-03-23T03:59:31.528Z,98087.05
2019-03-23T04:01:57.919Z,98085.17
2019-03-23T04:04:24.419Z,98080.31
2019-03-23T04:06:51.083Z,98083.00
2019-03-23T04:09:17.547Z,98079.75
2019-03-23T04:11:44.158Z,98081.91
2019-03-23T04:14:10.455Z,98082.17
2019-03-23T04:16:37.220Z,98085.42
2019-03-23T04:19:03.639Z,98082.17
2019-03-23T04:21:30.206Z,98081.08
2019-03-23T04:23:58.293Z,98083.24
2019-03-23T04:26:24.751Z,98078.66
2019-03-23T04:28:51.139Z,98081.12
2019-03-23T04:31:17.717Z,98076.58
2019-03-23T04:33:44.150Z,98076.92
2019-03-23T04:36:10.547Z,98073.98
2019-03-23T04:38:37.119Z,98070.00
2019-03-23T04:41:03.634Z,98076.48
2019-03-23T04:43:30.447Z,98070.81
2019-03-23T04:45:56.838Z,98075.41
2019-03-23T04:48:23.469Z,98073.79
2019-03-23T04:50:50.201Z,98075.94
2019-03-23T04:53:16.835Z,98074.86
2019-03-23T04:55:43.219Z,98071.08
2019-03-23T04:58:09.746Z,98069.20
2019-03-23T05:00:36.045Z,98068.70
2019-03-23T05:03:02.797Z,98074.67
2019-03-23T05:05:29.281Z,98073.37
2019-03-23T05:07:55.682Z,98072.03
2019-03-23T05:10:22.109Z,98072.29
2019-03-23T05:12:48.883Z,98070.95
2019-03-23T05:15:15.630Z,98068.55
2019-03-23T05:17:42.110Z,98070.20
2019-03-23T05:20:12.084Z,98075.89
2019-03-23T05:22:38.463Z,98064.27
2019-03-23T05:25:09.079Z,98065.36
2019-03-23T05:27:35.794Z,98066.17
2019-03-23T05:30:06.035Z,98060.01
2019-03-23T05:32:32.923Z,98064.87
2019-03-23T05:35:00.279Z,98062.78
2019-03-23T05:37:27.011Z,98058.25
2019-03-23T05:39:53.446Z,98062.31
2019-03-23T05:42:19.777Z,98060.70
2019-03-23T05:44:46.178Z,98062.31
2019-03-23T05:47:12.703Z,98055.78
2019-03-23T05:49:39.141Z,98068.73
2019-03-23T05:52:05.874Z,98070.02
2019-03-23T05:54:32.256Z,98062.93
2019-03-23T05:56:58.785Z,98068.00
2019-03-23T05:59:25.079Z,98064.68
2019-03-23T06:01:51.710Z,98064.53
2019-03-23T06:04:18.359Z,98068.67
2019-03-23T06:06:45.214Z,98066.45
2019-03-23T06:09:11.912Z,98064.13
2019-03-23T06:11:38.463Z,98067.18
2019-03-23T06:14:05.002Z,98065.19
2019-03-23T06:16:31.626Z,98062.12
2019-03-23T06:18:58.433Z,98060.52
2019-03-23T06:21:24.851Z,98061.90
2019-03-23T06:23:51.271Z,98058.06
2019-03-23T06:26:17.811Z,98056.36
2019-03-23T06:28:44.115Z,98050.58
2019-03-23T06:31:10.749Z,98055.78
2019-03-23T06:33:37.271Z,98050.84
2019-03-23T06:36:03.820Z,98056.21
2019-03-23T06:38:30.558Z,98059.56
2019-03-23T06:40:57.067Z,98054.20
2019-03-23T06:43:23.526Z,98057.73
2019-03-23T06:45:50.451Z,98057.30
2019-03-23T06:48:16.999Z,98062.42
2019-03-23T06:50:43.407Z,98057.89
2019-03-23T06:53:09.915Z,98059.86
2019-03-23T06:55:36.237Z,98058.75
2019-03-23T06:58:03.170Z,98049.11
2019-03-23T07:00:29.711Z,98056.64
2019-03-23T07:02:56.096Z,98045.14
2019-03-23T07:05:22.743Z,98052.79
2019-03-23T07:07:49.229Z,98051.35
2019-03-23T07:10:15.909Z,98047.70
2019-03-23T07:12:42.426Z,98041.77
2019-03-23T07:15:19.484Z,98043.70
2019-03-23T07:17:39.654Z,98046.18
2019-03-23T07:20:10.486Z,98046.56
2019-03-23T07:22:37.275Z,98044.41
2019-03-23T07:25:09.887Z,98041.69
2019-03-23T07:27:36.375Z,98042.55
2019-03-23T07:30:15.073Z,98043.41
2019-03-23T07:32:41.561Z,98036.95
2019-03-23T07:35:08.703Z,98034.09
2019-03-23T07:37:35.048Z,98032.80
2019-03-23T07:40:01.507Z,98039.67
2019-03-23T07:42:28.458Z,98033.62
2019-03-23T07:44:54.942Z,98044.89
2019-03-23T07:47:21.502Z,98029.13
2019-03-23T07:49:48.027Z,98032.63
2019-03-23T07:52:14.532Z,98026.93
2019-03-23T07:54:41.098Z,98022.11
2019-03-23T07:57:09.339Z,98023.17
2019-03-23T07:59:35.881Z,98016.91
2019-03-23T08:02:02.343Z,98010.94
2019-03-23T08:04:28.954Z,98010.62
2019-03-23T08:06:55.323Z,98014.96
2019-03-23T08:09:23.560Z,98012.31
2019-03-23T08:11:50.098Z,98005.27
2019-03-23T08:14:16.384Z,97998.47
2019-03-23T08:16:42.758Z,98003.14
2019-03-23T08:19:09.066Z,97999.81
2019-03-23T08:21:35.676Z,98001.75
2019-03-23T08:24:04.923Z,97995.22
2019-03-23T08:26:31.319Z,97995.67
2019-03-23T08:28:57.741Z,97986.73
2019-03-23T08:31:24.351Z,97991.38
2019-03-23T08:33:52.088Z,97981.05
2019-03-23T08:36:18.699Z,97985.16
2019-03-23T08:38:45.196Z,97985.48
2019-03-23T08:41:11.775Z,97980.48
2019-03-23T08:43:38.471Z,97979.70
2019-03-23T08:46:05.194Z,97977.41
2019-03-23T08:48:31.509Z,97974.52
2019-03-23T08:50:57.847Z,97980.45
2019-03-23T08:53:24.238Z,97978.58
2019-03-23T08:55:50.875Z,97970.95
2019-03-23T08:58:27.458Z,97970.17
2019-03-23T09:00:55.085Z,97970.31
2019-03-23T09:03:21.478Z,97969.73
2019-03-23T09:05:47.892Z,97972.91
2019-03-23T09:08:14.334Z,97974.78
2019-03-23T09:10:40.673Z,97970.34
2019-03-23T09:13:08.490Z,97957.97
2019-03-23T09:15:34.906Z,97959.67
2019-03-23T09:18:01.683Z,97955.80
2019-03-23T09:20:29.526Z,97958.47
2019-03-23T09:22:56.113Z,97954.80
2019-03-23T09:25:22.734Z,97952.82
2019-03-23T09:27:49.155Z,97945.48
2019-03-23T09:30:15.669Z,97937.97
2019-03-23T09:32:42.244Z,97943.45
2019-03-23T09:35:09.013Z,97937.08
2019-03-23T09:37:38.170Z,97937.38
2019-03-23T09:40:10.786Z,97938.84
2019-03-23T09:42:33.845Z,97935.56
2019-03-23T09:45:00.424Z,97938.83
2019-03-23T09:47:26.823Z,97927.02
2019-03-23T09:49:53.223Z,97928.03
2019-03-23T09:52:19.631Z,97924.55
2019-03-23T09:54:46.538Z,97923.23
2019-03-23T09:57:12.963Z,97914.09
2019-03-23T09:59:39.362Z,97917.63
2019-03-23T10:02:05.801Z,97908.17
2019-03-23T10:04:32.095Z,97908.77
2019-03-23T10:06:58.901Z,97909.73
2019-03-23T10:09:25.297Z,97912.92
2019-03-23T10:11:52.425Z,97909.62
2019-03-23T10:14:18.879Z,97907.60
2019-03-23T10:16:45.348Z,97902.64
2019-03-23T10:19:11.771Z,97901.11
2019-03-23T10:21:38.320Z,97898.66
2019-03-23T10:24:04.819Z,97898.29
2019-03-23T10:26:31.229Z,97886.95
2019-03-23T10:28:57.776Z,97878.55
2019-03-23T10:31:24.366Z,97881.41
2019-03-23T10:33:50.852Z,97872.40
2019-03-23T10:36:17.286Z,97876.63
2019-03-23T10:38:43.689Z,97870.95
2019-03-23T10:41:10.003Z,97869.02
2019-03-23T10:43:36.462Z,97868.66
2019-03-23T10:46:03.354Z,97855.44
2019-03-23T10:48:30.041Z,97857.26
2019-03-23T10:50:56.639Z,97858.64
2019-03-23T10:53:23.507Z,97856.25
2019-03-23T10:55:50.075Z,97855.48
2019-03-23T10:58:16.470Z,97860.41
2019-03-23T11:00:43.013Z,97856.69
2019-03-23T11:11:15.853Z,97855.34
2019-03-23T11:13:42.458Z,97852.81
2019-03-23T11:16:08.993Z,97848.69
2019-03-23T11:18:35.432Z,97839.78
2019-03-23T11:21:01.895Z,97839.38
2019-03-23T11:23:28.330Z,97838.42
2019-03-23T11:25:54.678Z,97833.27
2019-03-23T11:28:21.368Z,97830.48
2019-03-23T11:30:47.817Z,97828.69
2019-03-23T11:33:14.155Z,97824.33
2019-03-23T11:35:40.704Z,97827.72
2019-03-23T11:38:07.117Z,97815.83
2019-03-23T11:40:33.561Z,97816.03
2019-03-23T11:43:00.063Z,97816.24
2019-03-23T11:45:27.315Z,97809.11
2019-03-23T11:47:53.663Z,97805.75
2019-03-23T11:50:20.121Z,97803.16
2019-03-23T11:52:47.164Z,97799.62
2019-03-23T11:55:13.830Z,97806.34
2019-03-23T11:57:40.352Z,97804.16
2019-03-23T12:00:13.414Z,97797.81
2019-03-23T12:02:40.230Z,97800.38
2019-03-23T12:05:07.491Z,97790.51
2019-03-23T12:07:33.920Z,97790.49
2019-03-23T12:10:00.404Z,97787.52
2019-03-23T12:12:26.718Z,97783.56
2019-03-23T12:14:53.316Z,97780.59
2019-03-23T12:17:19.711Z,97772.88
2019-03-23T12:19:46.007Z,97780.99
2019-03-23T12:22:12.718Z,97779.21
2019-03-23T12:24:39.312Z,97772.08
2019-03-23T12:35:50.275Z,97773.02
2019-03-23T12:38:17.417Z,97767.43
2019-03-23T12:40:43.720Z,97770.59
2019-03-23T12:43:10.134Z,97760.28
2019-03-23T12:45:36.418Z,97764.41
2019-03-23T12:48:03.069Z,97763.20
2019-03-23T12:50:29.467Z,97754.70
2019-03-23T12:52:57.461Z,97759.85
2019-03-23T12:55:24.227Z,97758.65
2019-03-23T12:57:50.659Z,97756.86
2019-03-23T13:00:17.387Z,97750.32
2019-03-23T13:02:43.954Z,97741.22
2019-03-23T13:05:10.555Z,97741.99
2019-03-23T13:07:37.051Z,97741.59
2019-03-23T13:10:08.191Z,97741.56
2019-03-23T13:12:34.690Z,97746.30
2019-03-23T13:15:01.204Z,97741.16
2019-03-23T13:17:27.761Z,97739.53
2019-03-23T13:19:54.062Z,97740.91
2019-03-23T13:22:20.459Z,97731.03
2019-03-23T13:24:47.228Z,97733.38
2019-03-23T13:27:13.510Z,97734.14
2019-03-23T13:29:39.953Z,97730.37
2019-03-23T13:32:06.433Z,97723.43
2019-03-23T13:34:32.742Z,97720.01
2019-03-23T13:36:59.215Z,97716.61
2019-03-23T13:39:25.679Z,97712.78
2019-03-23T13:41:51.966Z,97717.89
2019-03-23T13:44:18.736Z,97710.56
2019-03-23T13:46:45.337Z,97710.91
2019-03-23T13:49:12.721Z,97705.16
2019-03-23T13:51:39.251Z,97702.23
2019-03-23T13:54:05.968Z,97707.89
2019-03-23T13:56:32.412Z,97704.53
2019-03-23T13:58:58.837Z,97706.87
2019-03-23T14:01:25.519Z,97698.96
2019-03-23T14:03:52.238Z,97700.94
2019-03-23T14:06:18.572Z,97694.60
2019-03-23T14:08:44.975Z,97693.98
2019-03-23T14:11:11.707Z,97688.03
2019-03-23T14:13:37.990Z,97686.27
2019-03-23T14:16:04.405Z,97683.09
2019-03-23T14:18:30.840Z,97675.34
2019-03-23T14:20:57.155Z,97678.48
2019-03-23T14:23:23.675Z,97670.77
2019-03-23T14:25:50.162Z,97673.45
2019-03-23T14:28:16.453Z,97668.44
2019-03-23T14:30:43.279Z,97668.34
2019-03-23T14:33:09.685Z,97661.56
2019-03-23T14:35:36.151Z,97656.14
2019-03-23T14:38:02.644Z,97662.81
2019-03-23T14:40:29.302Z,97659.80
2019-03-23T14:42:55.634Z,97660.78
2019-03-23T14:45:22.187Z,97665.25
2019-03-23T14:47:49.132Z,97666.02
2019-03-23T14:50:15.527Z,97666.56
2019-03-23T14:52:41.992Z,97666.91
2019-03-23T14:55:08.693Z,97663.50
2019-03-23T14:57:35.098Z,97661.43
2019-03-23T15:00:03.034Z,97653.50
2019-03-23T15:02:29.457Z,97652.69
2019-03-23T15:04:55.846Z,97655.39
2019-03-23T15:07:22.276Z,97651.23
2019-03-23T15:09:48.562Z,97647.63
2019-03-23T15:12:15.485Z,97649.56
2019-03-23T15:14:42.011Z,97647.55
2019-03-23T15:17:08.451Z,97651.23
2019-03-23T15:19:34.899Z,97647.99
2019-03-23T15:22:01.204Z,97647.51
2019-03-23T15:24:28.189Z,97648.58
2019-03-23T15:26:54.725Z,97648.34
2019-03-23T15:29:21.120Z,97645.09
2019-03-23T15:31:47.539Z,97651.95
2019-03-23T15:34:13.859Z,97652.30
2019-03-23T15:36:40.238Z,97651.22
2019-03-23T15:39:07.173Z,97648.73
2019-03-23T15:41:34.178Z,97641.53
2019-03-23T15:44:00.614Z,97645.75
2019-03-23T15:46:27.210Z,97642.46
2019-03-23T15:48:53.606Z,97646.27
2019-03-23T15:51:20.076Z,97643.41
2019-03-23T15:53:46.473Z,97641.86
2019-03-23T15:56:12.907Z,97643.30
2019-03-23T15:58:39.691Z,97642.39
2019-03-23T16:01:06.289Z,97636.77
2019-03-23T16:03:32.591Z,97640.78
2019-03-23T16:05:59.342Z,97641.82
2019-03-23T16:08:25.932Z,97643.66
2019-03-23T16:10:52.368Z,97644.69
2019-03-23T16:13:18.757Z,97649.27
2019-03-23T16:15:45.059Z,97640.45
2019-03-23T16:18:11.739Z,97641.47
2019-03-23T16:20:38.044Z,97645.45
2019-03-23T16:23:04.377Z,97647.27
2019-03-23T16:25:30.699Z,97649.28
2019-03-23T16:27:57.037Z,97644.61
2019-03-23T16:30:30.945Z,97645.78
2019-03-23T16:32:57.456Z,97645.22
2019-03-23T16:35:23.825Z,97639.36
2019-03-23T16:37:50.258Z,97639.56
2019-03-23T16:40:16.615Z,97644.11
2019-03-23T16:42:45.449Z,97638.81
2019-03-23T16:45:11.746Z,97644.73
2019-03-23T16:47:38.073Z,97641.60
2019-03-23T16:50:06.022Z,97637.67
2019-03-23T16:52:32.321Z,97637.86
2019-03-23T16:54:58.901Z,97636.91
2019-03-23T16:57:25.287Z,97639.25
2019-03-23T16:59:51.751Z,97637.27
2019-03-23T17:02:18.142Z,97643.50
2019-03-23T17:04:44.465Z,97648.93
2019-03-23T17:07:10.795Z,97646.93
2019-03-23T17:09:37.104Z,97651.55
2019-03-23T17:12:03.736Z,97647.38
2019-03-23T17:14:30.127Z,97647.77
2019-03-23T17:16:56.702Z,97646.78
2019-03-23T17:26:45.261Z,97656.97
2019-03-23T17:29:12.143Z,97660.41
2019-03-23T17:31:38.736Z,97663.52
2019-03-23T17:34:05.238Z,97663.55
2019-03-23T17:36:31.641Z,97667.45
2019-03-23T17:38:57.963Z,97663.11
2019-03-23T17:41:24.715Z,97664.50
2019-03-23T17:43:51.174Z,97666.08
2019-03-23T17:46:18.122Z,97664.96
2019-03-23T17:48:44.413Z,97662.44
2019-03-23T17:51:10.739Z,97662.34
2019-03-23T17:53:37.169Z,97670.89
2019-03-23T17:56:03.486Z,97674.53
2019-03-23T17:58:29.935Z,97672.47
2019-03-23T18:00:56.221Z,97671.25
2019-03-23T18:03:22.709Z,97676.25
2019-03-23T18:05:49.098Z,97674.98
2019-03-23T18:08:15.719Z,97677.49
2019-03-23T18:10:42.003Z,97682.20
2019-03-23T18:13:16.168Z,97683.44
2019-03-23T18:15:37.135Z,97686.52
2019-03-23T18:18:03.819Z,97682.53
2019-03-23T18:20:30.406Z,97688.90
2019-03-23T18:22:56.906Z,97692.72
2019-03-23T18:25:23.357Z,97697.34
2019-03-23T18:27:49.809Z,97696.05
2019-03-23T18:30:39.629Z,97704.77
2019-03-23T18:33:06.475Z,97701.38
2019-03-23T18:35:32.871Z,97706.78
2019-03-23T18:38:00.837Z,97712.88
2019-03-23T18:40:27.127Z,97716.05
2019-03-23T18:42:53.683Z,97716.70
2019-03-23T18:45:20.086Z,97716.34
2019-03-23T18:47:47.073Z,97723.02
2019-03-23T18:50:13.496Z,97718.22
2019-03-23T18:52:39.817Z,97720.27
2019-03-23T18:55:06.677Z,97720.47
2019-03-23T18:57:33.072Z,97723.13
2019-03-23T18:59:59.418Z,97726.06
2019-03-23T19:02:25.812Z,97729.31
2019-03-23T19:04:52.159Z,97731.89
2019-03-23T19:07:18.573Z,97729.84
2019-03-23T19:09:45.208Z,97732.49
2019-03-23T19:12:11.636Z,97718.53
2019-03-23T19:14:38.194Z,97728.95
2019-03-23T19:17:04.668Z,97724.70
2019-03-23T19:19:31.104Z,97731.30
2019-03-23T19:21:57.609Z,97732.93
2019-03-23T19:24:24.196Z,97738.65
2019-03-23T19:26:50.514Z,97739.36
2019-03-23T19:29:17.204Z,97738.51
2019-03-23T19:31:43.788Z,97731.92
2019-03-23T19:34:10.426Z,97735.39
2019-03-23T19:36:36.830Z,97735.39
2019-03-23T19:39:06.571Z,97730.77
2019-03-23T19:41:33.210Z,97730.77
2019-03-23T19:43:59.662Z,97737.96
2019-03-23T19:46:26.279Z,97740.13
2019-03-23T19:48:53.632Z,97740.13
2019-03-23T19:51:20.084Z,97737.96
2019-03-23T19:53:46.527Z,97719.27
2019-03-23T19:56:13.103Z,97719.27
2019-03-23T19:58:39.445Z,97744.56
2019-03-23T20:01:05.740Z,97730.97
2019-03-23T20:03:32.117Z,97750.26
2019-03-23T20:05:58.628Z,97743.35
2019-03-23T20:08:25.689Z,97746.63
2019-03-23T20:10:52.618Z,97724.34
2019-03-23T20:13:18.933Z,97745.52
2019-03-23T20:15:45.235Z,97745.52
2019-03-23T20:18:11.676Z,97743.21
2019-03-23T20:20:37.975Z,97738.81
2019-03-23T20:23:04.673Z,97736.33
2019-03-23T20:25:31.663Z,97736.88
2019-03-23T20:27:58.147Z,97732.30
2019-03-23T20:30:24.782Z,97738.53
2019-03-23T20:32:51.547Z,97740.05
2019-03-23T20:35:18.130Z,97737.01
2019-03-23T20:37:44.457Z,97739.89
2019-03-23T20:40:13.300Z,97733.22
2019-03-23T20:42:39.967Z,97730.91
2019-03-23T20:45:08.198Z,97734.95
2019-03-23T20:47:34.490Z,97733.56
2019-03-23T20:50:01.177Z,97735.61
2019-03-23T20:52:27.677Z,97735.61
2019-03-23T20:54:54.181Z,97737.33
2019-03-23T20:57:24.123Z,97725.02
2019-03-23T20:59:49.236Z,97729.70
2019-03-23T21:02:15.654Z,97719.23
2019-03-23T21:04:42.063Z,97723.31
2019-03-23T21:07:08.658Z,97721.45
2019-03-23T21:09:35.099Z,97719.84
2019-03-23T21:12:01.650Z,97725.03
2019-03-23T21:14:28.085Z,97728.34
2019-03-23T21:16:54.469Z,97718.89
2019-03-23T21:19:20.971Z,97722.72
2019-03-23T21:21:47.358Z,97715.18
2019-03-23T21:24:13.942Z,97706.32
2019-03-23T21:26:40.266Z,97706.19
2019-03-23T21:29:06.846Z,97709.27
2019-03-23T21:31:33.174Z,97710.62
2019-03-23T21:33:59.646Z,97709.27
2019-03-23T21:36:26.725Z,97706.00
2019-03-23T21:38:53.115Z,97701.18
2019-03-23T21:41:19.543Z,97704.53
2019-03-23T21:43:46.054Z,97708.91
2019-03-23T21:46:12.424Z,97700.02
2019-03-23T21:48:38.709Z,97704.44
2019-03-23T21:51:05.075Z,97706.95
2019-03-23T21:53:31.566Z,97705.10
2019-03-23T21:55:57.871Z,97701.67
2019-03-23T21:58:24.417Z,97704.44
2019-03-23T22:00:50.737Z,97704.25
2019-03-23T22:03:17.330Z,97705.99
2019-03-23T22:05:43.745Z,97709.31
2019-03-23T22:08:10.072Z,97708.34
2019-03-23T22:10:36.365Z,97708.40
2019-03-23T22:13:03.007Z,97709.03
2019-03-23T22:15:33.647Z,97707.48
2019-03-23T22:18:00.284Z,97702.36
2019-03-23T22:20:26.676Z,97707.78
2019-03-23T22:22:53.217Z,97708.34
2019-03-23T22:25:19.515Z,97715.20
2019-03-23T22:27:45.930Z,97707.13
2019-03-23T22:30:13.080Z,97712.55
2019-03-23T22:32:39.580Z,97709.83
2019-03-23T22:35:06.619Z,97708.73
2019-03-23T22:37:33.033Z,97704.36
2019-03-23T22:39:59.602Z,97709.39
2019-03-23T22:42:26.177Z,97710.95
2019-03-23T22:44:52.947Z,97708.15
2019-03-23T22:47:19.527Z,97713.27
2019-03-23T22:49:45.941Z,97715.44
2019-03-23T22:52:12.446Z,97714.27
2019-03-23T22:54:39.121Z,97709.62
2019-03-23T22:57:05.572Z,97710.31
2019-03-23T22:59:32.191Z,97712.61
2019-03-23T23:01:58.764Z,97715.67
2019-03-23T23:04:25.150Z,97705.77
2019-03-23T23:06:51.866Z,97708.83
2019-03-23T23:09:18.184Z,97708.41
2019-03-23T23:11:44.494Z,97709.27
2019-03-23T23:14:11.093Z,97708.47
2019-03-23T23:16:37.496Z,97708.22
2019-03-23T23:19:03.963Z,97708.16
2019-03-23T23:21:30.394Z,97708.72
2019-03-23T23:23:56.936Z,97715.80
2019-03-23T23:26:23.337Z,97709.81
2019-03-23T23:28:49.693Z,97700.96
2019-03-23T23:31:16.355Z,97705.03
2019-03-23T23:33:43.043Z,97706.55
2019-03-23T23:36:09.373Z,97700.83
2019-03-23T23:38:35.915Z,97698.11
2019-03-23T23:41:02.460Z,97699.17
2019-03-23T23:43:28.763Z,97703.54
2019-03-23T23:45:55.279Z,97701.77
2019-03-23T23:48:21.976Z,97702.67
2019-03-23T23:50:48.409Z,97698.98
2019-03-23T23:53:15.003Z,97693.19
2019-03-23T23:55:41.318Z,97697.61
2019-03-23T23:58:07.709Z,97691.94
